Time;durP1;ratioP1;P1;durP2;ratioP2;P2;SDS_P1;SDS_P2;PMS_P1;PMS_P2;Temp;Humidity;BMP_temperature;BMP_pressure;BME280_temperature;BME280_humidity;BME280_pressure;Samples;Min_cycle;Max_cycle;Signal;HPM_P1;HPM_P2
2022/09/28 00:00:38;;;;;;;7.63;6.22;;;6.80;99.90;;;;;;5050072;28;20013;-74
2022/09/28 00:03:05;;;;;;;10.70;6.25;;;6.80;99.90;;;;;;5064794;28;20401;-74
2022/09/28 00:05:31;;;;;;;7.78;5.85;;;6.70;99.90;;;;;;5051481;28;20017;-74
2022/09/28 00:07:57;;;;;;;7.43;6.00;;;6.90;99.90;;;;;;5063141;28;20021;-74
2022/09/28 00:10:22;;;;;;;7.75;6.00;;;7.00;99.90;;;;;;5049934;28;20025;-74
2022/09/28 00:12:49;;;;;;;8.52;6.55;;;7.10;99.90;;;;;;5049722;28;20060;-73
2022/09/28 00:15:15;;;;;;;10.63;6.18;;;7.20;99.90;;;;;;5070030;28;20020;-73
2022/09/28 00:17:43;;;;;;;9.02;6.97;;;7.10;99.90;;;;;;5072582;28;20112;-73
2022/09/28 00:20:10;;;;;;;8.45;6.45;;;7.00;99.90;;;;;;5049882;28;20027;-75
2022/09/28 00:22:35;;;;;;;8.38;6.80;;;7.10;99.90;;;;;;5051205;28;20036;-73
2022/09/28 00:25:01;;;;;;;10.75;7.05;;;7.10;99.90;;;;;;5062024;28;20482;-74
2022/09/28 00:27:26;;;;;;;8.40;6.88;;;7.00;99.90;;;;;;5073995;28;20490;-74
2022/09/28 00:29:52;;;;;;;8.77;7.00;;;7.10;99.90;;;;;;5059409;28;20038;-73
2022/09/28 00:32:17;;;;;;;8.98;6.78;;;6.90;99.90;;;;;;5070382;28;20074;-74
2022/09/28 00:34:47;;;;;;;9.80;7.53;;;7.00;99.90;;;;;;5051101;28;20025;-73
2022/09/28 00:37:13;;;;;;;12.00;7.72;;;6.90;99.90;;;;;;5057479;28;20478;-75
2022/09/28 00:39:43;;;;;;;10.05;8.30;;;6.80;99.90;;;;;;5070985;28;20428;-75
2022/09/28 00:42:13;;;;;;;11.50;8.02;;;6.80;99.90;;;;;;5065909;28;20036;-75
2022/09/28 00:44:42;;;;;;;8.18;6.82;;;6.80;99.90;;;;;;5051177;28;20031;-73
2022/09/28 00:47:24;;;;;;;10.90;8.10;;;6.70;99.90;;;;;;5074305;28;20016;-73
2022/09/28 00:50:05;;;;;;;11.45;8.73;;;6.80;99.90;;;;;;5057495;28;20463;-75
2022/09/28 00:52:55;;;;;;;10.38;7.88;;;6.70;99.90;;;;;;5054604;28;20035;-73
2022/09/28 00:55:32;;;;;;;13.55;9.60;;;6.70;99.90;;;;;;5054798;28;20025;-74
2022/09/28 00:58:02;;;;;;;14.07;9.60;;;6.80;99.90;;;;;;5052881;28;20022;-73
2022/09/28 01:00:27;;;;;;;10.90;8.82;;;6.80;99.90;;;;;;5054275;28;20079;-74
2022/09/28 01:02:53;;;;;;;10.20;9.02;;;6.80;99.90;;;;;;5067526;28;20028;-73
2022/09/28 01:05:20;;;;;;;12.15;8.75;;;6.80;99.90;;;;;;5066186;28;20059;-74
2022/09/28 01:07:47;;;;;;;14.98;8.55;;;6.80;99.90;;;;;;5062681;28;20194;-73
2022/09/28 01:10:13;;;;;;;11.20;9.02;;;6.90;99.90;;;;;;5068169;28;20393;-73
2022/09/28 01:12:39;;;;;;;10.30;7.85;;;6.90;99.90;;;;;;5072817;28;20508;-73
2022/09/28 01:15:05;;;;;;;9.25;8.32;;;6.80;99.90;;;;;;5073875;28;20024;-74
2022/09/28 01:17:40;;;;;;;9.60;7.00;;;6.90;99.90;;;;;;5067524;28;20032;-74
2022/09/28 01:20:26;;;;;;;9.15;7.50;;;7.00;99.90;;;;;;5060307;28;20031;-74
2022/09/28 01:23:12;;;;;;;11.25;7.00;;;7.00;99.90;;;;;;5062353;28;20020;-72
2022/09/28 01:26:08;;;;;;;10.93;7.30;;;7.00;99.90;;;;;;5060943;28;20033;-73
2022/09/28 01:28:34;;;;;;;10.25;7.13;;;7.00;99.90;;;;;;5063332;28;20721;-74
2022/09/28 01:31:11;;;;;;;7.20;5.93;;;7.00;99.90;;;;;;5062077;28;20281;-74
2022/09/28 01:33:45;;;;;;;9.63;6.65;;;7.10;99.90;;;;;;5064028;28;20024;-74
2022/09/28 01:36:21;;;;;;;8.82;7.05;;;7.00;99.90;;;;;;5062707;28;20017;-72
2022/09/28 01:39:07;;;;;;;6.80;6.10;;;7.00;99.90;;;;;;5063844;28;20020;-73
2022/09/28 01:41:35;;;;;;;7.10;6.07;;;7.00;99.90;;;;;;5067153;28;20060;-73
2022/09/28 01:44:04;;;;;;;6.38;5.65;;;7.00;99.90;;;;;;5061721;28;20025;-73
2022/09/28 01:46:45;;;;;;;7.72;5.68;;;7.10;99.90;;;;;;5063122;28;20104;-73
2022/09/28 01:49:19;;;;;;;7.72;5.20;;;7.10;99.90;;;;;;5065889;28;20039;-73
2022/09/28 01:51:59;;;;;;;7.00;4.80;;;7.10;99.90;;;;;;5070955;28;20032;-73
2022/09/28 01:54:27;;;;;;;6.20;4.53;;;7.10;99.90;;;;;;5074581;28;20453;-73
2022/09/28 01:57:04;;;;;;;6.70;4.65;;;7.20;99.90;;;;;;5087792;28;20032;-73
2022/09/28 01:59:33;;;;;;;7.65;4.90;;;7.20;99.90;;;;;;5065190;28;20020;-73
2022/09/28 02:02:08;;;;;;;6.25;4.68;;;7.20;99.90;;;;;;5070585;28;20106;-73
2022/09/28 02:04:49;;;;;;;5.78;4.20;;;7.20;99.90;;;;;;5083140;28;20035;-74
2022/09/28 02:07:53;;;;;;;5.80;4.47;;;7.20;99.90;;;;;;5062615;28;20100;-74
2022/09/28 02:10:23;;;;;;;6.07;4.00;;;7.30;99.90;;;;;;5035877;28;20045;-74
2022/09/28 02:13:19;;;;;;;5.45;4.25;;;7.20;99.90;;;;;;5064672;28;20028;-74
2022/09/28 02:15:50;;;;;;;6.00;4.03;;;7.20;99.90;;;;;;5076045;28;20039;-74
2022/09/28 02:18:16;;;;;;;10.20;4.07;;;7.20;99.90;;;;;;5071644;28;20014;-73
2022/09/28 02:20:50;;;;;;;6.25;3.65;;;7.30;99.90;;;;;;5062475;28;20704;-73
2022/09/28 02:23:18;;;;;;;6.00;3.78;;;7.30;99.90;;;;;;5074815;28;20057;-73
2022/09/28 02:25:51;;;;;;;6.85;4.28;;;7.30;99.90;;;;;;5082363;28;20040;-72
2022/09/28 02:28:17;;;;;;;7.32;3.47;;;7.30;99.90;;;;;;5061590;28;20016;-73
2022/09/28 02:30:43;;;;;;;9.73;3.42;;;7.30;99.90;;;;;;5061260;28;20478;-73
2022/09/28 02:33:15;;;;;;;4.68;3.70;;;7.30;99.90;;;;;;5061555;28;20021;-73
2022/09/28 02:35:41;;;;;;;4.97;3.80;;;7.20;99.90;;;;;;5079635;28;20013;-73
2022/09/28 02:38:11;;;;;;;4.78;3.83;;;7.30;99.90;;;;;;5076718;28;20016;-73
2022/09/28 02:40:37;;;;;;;6.13;4.53;;;7.30;99.90;;;;;;5074611;28;20032;-73
2022/09/28 02:43:02;;;;;;;6.38;4.20;;;7.30;99.90;;;;;;5064039;28;20100;-72
2022/09/28 02:45:51;;;;;;;6.82;4.30;;;7.30;99.90;;;;;;5063030;28;20024;-72
2022/09/28 02:48:49;;;;;;;7.95;3.88;;;7.30;99.90;;;;;;5060149;28;20364;-72
2022/09/28 02:51:25;;;;;;;6.65;4.30;;;7.30;99.90;;;;;;5064530;28;20031;-72
2022/09/28 02:54:00;;;;;;;;;;;7.20;99.90;;;;;;5068507;28;20465;-72
2022/09/28 02:56:44;;;;;;;8.18;4.10;;;7.20;99.90;;;;;;5061599;28;19948;-72
2022/09/28 02:59:29;;;;;;;7.85;4.35;;;7.30;99.90;;;;;;5064309;28;20038;-72
2022/09/28 03:02:15;;;;;;;5.97;4.45;;;7.30;99.90;;;;;;5060448;28;20029;-74
2022/09/28 03:05:08;;;;;;;7.70;4.72;;;7.20;99.90;;;;;;5065632;28;20074;-74
2022/09/28 03:08:16;;;;;;;8.35;4.85;;;7.10;99.90;;;;;;5061506;28;20024;-75
2022/09/28 03:10:49;;;;;;;10.00;4.93;;;7.20;99.90;;;;;;5035398;28;20048;-74
2022/09/28 03:13:15;;;;;;;7.05;5.00;;;7.20;99.90;;;;;;5063057;28;20024;-74
2022/09/28 03:15:41;;;;;;;5.60;3.90;;;7.30;99.90;;;;;;5062919;28;20024;-73
2022/09/28 03:18:07;;;;;;;8.52;4.60;;;7.30;99.90;;;;;;5060782;28;20466;-74
2022/09/28 03:20:33;;;;;;;7.28;4.15;;;7.20;99.90;;;;;;5061756;28;20112;-74
2022/09/28 03:23:00;;;;;;;5.22;4.03;;;7.20;99.90;;;;;;5060104;28;20392;-74
2022/09/28 03:25:26;;;;;;;5.95;4.00;;;7.30;99.90;;;;;;5065591;28;20062;-74
2022/09/28 03:27:51;;;;;;;6.50;4.30;;;7.30;99.90;;;;;;5080647;28;20052;-75
2022/09/28 03:30:17;;;;;;;6.20;4.95;;;7.30;99.90;;;;;;5072498;28;20016;-74
2022/09/28 03:32:42;;;;;;;5.28;4.38;;;7.30;99.90;;;;;;5082251;28;20024;-75
2022/09/28 03:35:08;;;;;;;5.28;3.70;;;7.30;99.90;;;;;;5077522;28;20031;-75
2022/09/28 03:37:34;;;;;;;4.35;3.33;;;7.20;99.90;;;;;;5055875;28;20036;-74
2022/09/28 03:40:00;;;;;;;3.67;3.10;;;7.30;99.90;;;;;;5062059;28;20032;-74
2022/09/28 03:42:26;;;;;;;5.13;3.13;;;7.30;99.90;;;;;;5059243;28;20025;-74
2022/09/28 03:44:51;;;;;;;3.10;2.80;;;7.30;99.90;;;;;;5061889;28;20462;-73
2022/09/28 03:47:18;;;;;;;3.45;3.03;;;7.30;99.90;;;;;;5059730;28;20084;-74
2022/09/28 03:49:44;;;;;;;3.97;3.05;;;7.20;99.90;;;;;;5082423;28;20016;-74
2022/09/28 03:52:10;;;;;;;2.72;2.22;;;7.20;99.90;;;;;;5069887;28;20013;-74
2022/09/28 03:54:36;;;;;;;3.58;2.60;;;7.20;99.90;;;;;;5060225;28;20029;-73
2022/09/28 03:57:01;;;;;;;3.47;2.40;;;7.20;99.90;;;;;;5059430;28;20068;-74
2022/09/28 03:59:27;;;;;;;4.53;2.67;;;7.20;99.90;;;;;;5060045;28;20082;-74
2022/09/28 04:01:53;;;;;;;2.65;2.17;;;7.30;99.90;;;;;;5058722;28;20101;-75
2022/09/28 04:04:19;;;;;;;2.97;1.92;;;7.40;99.90;;;;;;5083978;28;20016;-75
2022/09/28 04:06:44;;;;;;;2.08;1.70;;;7.40;99.90;;;;;;5059881;28;20033;-72
2022/09/28 04:09:10;;;;;;;3.88;1.80;;;7.40;99.90;;;;;;5063659;28;20040;-72
2022/09/28 04:11:36;;;;;;;2.17;1.70;;;7.40;99.90;;;;;;5054082;28;20025;-74
2022/09/28 04:14:01;;;;;;;4.38;2.25;;;7.30;99.90;;;;;;5068140;28;20024;-73
2022/09/28 04:16:27;;;;;;;4.68;2.30;;;7.30;99.90;;;;;;5081933;28;20020;-74
2022/09/28 04:18:53;;;;;;;2.78;2.10;;;7.40;99.90;;;;;;5076446;28;20020;-74
2022/09/28 04:21:19;;;;;;;2.85;2.58;;;7.40;99.90;;;;;;5078618;28;20069;-73
2022/09/28 04:23:46;;;;;;;2.33;2.13;;;7.30;99.90;;;;;;5065930;28;20021;-73
2022/09/28 04:26:17;;;;;;;2.20;2.00;;;7.30;99.90;;;;;;5063274;28;20013;-74
2022/09/28 04:31:29;;;;;;;3.90;2.05;;;7.40;99.90;;;;;;5089512;28;20035;-74
2022/09/28 04:33:56;;;;;;;3.88;2.08;;;7.40;99.90;;;;;;5083370;28;20402;-74
2022/09/28 04:36:23;;;;;;;2.67;2.30;;;7.40;99.90;;;;;;5083650;28;20424;-72
2022/09/28 04:38:50;;;;;;;3.67;2.83;;;7.50;99.90;;;;;;5079550;28;20021;-72
2022/09/28 04:41:16;;;;;;;3.92;2.50;;;7.40;99.90;;;;;;5053621;28;20043;-73
2022/09/28 04:43:41;;;;;;;2.60;2.40;;;7.40;99.90;;;;;;5067315;28;20024;-73
2022/09/28 04:46:09;;;;;;;4.00;3.47;;;7.40;99.90;;;;;;5077279;28;20051;-72
2022/09/28 04:48:36;;;;;;;5.13;4.18;;;7.40;99.90;;;;;;5073611;28;20105;-74
2022/09/28 04:51:02;;;;;;;5.13;4.05;;;7.50;99.90;;;;;;5054682;28;20482;-73
2022/09/28 04:53:28;;;;;;;7.00;6.30;;;7.50;99.90;;;;;;5057008;28;20032;-74
2022/09/28 04:56:03;;;;;;;19.55;15.00;;;7.50;99.90;;;;;;5066670;28;20366;-74
2022/09/28 04:58:29;;;;;;;57.30;28.83;;;7.50;99.90;;;;;;5063288;28;20470;-74
2022/09/28 05:01:00;;;;;;;112.47;64.00;;;7.50;99.90;;;;;;5063051;28;20027;-74
2022/09/28 05:03:26;;;;;;;18.17;12.07;;;7.50;99.90;;;;;;5075081;28;20033;-74
2022/09/28 05:05:52;;;;;;;18.88;14.95;;;7.50;99.90;;;;;;5074269;28;20108;-74
2022/09/28 05:08:17;;;;;;;13.10;9.75;;;7.50;99.90;;;;;;5053750;28;20033;-73
2022/09/28 05:10:44;;;;;;;7.28;6.45;;;7.50;99.90;;;;;;5109106;22;20050;-74
2022/09/28 05:13:11;;;;;;;8.40;6.53;;;7.50;99.90;;;;;;5086994;28;20063;-74
2022/09/28 05:15:39;;;;;;;8.80;6.25;;;7.50;99.90;;;;;;5087857;28;20017;-75
2022/09/28 05:18:05;;;;;;;6.80;4.78;;;7.50;99.90;;;;;;5083520;28;20016;-75
2022/09/28 05:20:33;;;;;;;8.73;6.22;;;7.60;99.90;;;;;;5089141;28;20447;-75
2022/09/28 05:22:58;;;;;;;13.02;7.97;;;7.60;99.90;;;;;;5072960;28;20029;-75
2022/09/28 05:25:24;;;;;;;20.42;13.05;;;7.50;99.90;;;;;;5060877;28;20028;-75
2022/09/28 05:27:56;;;;;;;19.63;11.73;;;7.50;99.90;;;;;;5085228;28;20035;-75
2022/09/28 05:30:23;;;;;;;18.80;14.20;;;7.60;99.90;;;;;;5075417;28;20505;-75
2022/09/28 05:32:49;;;;;;;11.85;8.23;;;7.50;99.90;;;;;;5072846;28;20635;-75
2022/09/28 05:35:15;;;;;;;15.95;11.20;;;7.50;99.90;;;;;;5092329;28;20032;-75
2022/09/28 05:37:41;;;;;;;18.13;11.23;;;7.60;99.90;;;;;;5080626;28;20115;-75
2022/09/28 05:40:08;;;;;;;31.38;17.15;;;7.60;99.90;;;;;;5087441;28;20024;-75
2022/09/28 05:42:33;;;;;;;28.35;15.98;;;7.60;99.90;;;;;;5073935;28;20115;-75
2022/09/28 05:44:59;;;;;;;31.13;16.95;;;7.60;99.90;;;;;;5087299;28;20052;-75
2022/09/28 05:47:27;;;;;;;10.60;8.23;;;7.60;99.90;;;;;;5085616;28;20055;-75
2022/09/28 05:49:53;;;;;;;7.82;7.13;;;7.70;99.90;;;;;;5076156;28;20028;-76
2022/09/28 05:52:18;;;;;;;6.80;6.20;;;7.60;99.90;;;;;;5078299;28;20035;-75
2022/09/28 05:54:44;;;;;;;10.23;9.15;;;7.70;99.90;;;;;;5057397;28;20027;-75
2022/09/28 05:57:10;;;;;;;15.60;11.98;;;7.60;99.90;;;;;;5073593;28;20439;-75
2022/09/28 05:59:35;;;;;;;41.22;31.15;;;7.60;99.90;;;;;;5086959;28;20470;-76
2022/09/28 06:02:02;;;;;;;96.43;62.03;;;7.70;99.90;;;;;;5083995;28;20397;-75
2022/09/28 06:04:28;;;;;;;106.22;68.03;;;7.60;99.90;;;;;;5078801;28;20547;-75
2022/09/28 06:06:53;;;;;;;190.85;108.95;;;7.60;99.90;;;;;;5080291;28;20028;-76
2022/09/28 06:09:19;;;;;;;183.82;99.13;;;7.60;99.90;;;;;;5089464;28;20432;-76
2022/09/28 06:11:45;;;;;;;80.13;47.80;;;7.60;99.90;;;;;;5077102;28;20516;-75
2022/09/28 06:14:12;;;;;;;76.43;45.33;;;7.60;99.90;;;;;;5079955;28;20139;-76
2022/09/28 06:16:39;;;;;;;41.28;29.30;;;7.60;99.90;;;;;;5080990;28;20012;-76
2022/09/28 06:19:06;;;;;;;54.42;33.95;;;7.70;99.90;;;;;;5078508;28;20095;-75
2022/09/28 06:21:32;;;;;;;17.40;11.68;;;7.80;99.90;;;;;;5087767;28;20035;-76
2022/09/28 06:23:57;;;;;;;10.98;8.82;;;7.80;99.90;;;;;;5080994;28;20028;-75
2022/09/28 06:26:23;;;;;;;8.60;7.28;;;7.80;99.90;;;;;;5079862;28;20024;-75
2022/09/28 06:28:48;;;;;;;9.38;7.03;;;7.80;99.90;;;;;;5086186;28;20238;-75
2022/09/28 06:31:14;;;;;;;7.97;5.50;;;7.80;99.90;;;;;;5084916;28;20020;-75
2022/09/28 06:33:40;;;;;;;5.68;4.90;;;7.80;99.90;;;;;;5079428;28;20087;-76
2022/09/28 06:36:07;;;;;;;6.28;5.60;;;7.80;99.90;;;;;;5093084;28;20026;-75
2022/09/28 06:38:32;;;;;;;9.23;6.30;;;7.90;99.90;;;;;;5079065;28;20032;-75
2022/09/28 06:40:58;;;;;;;6.43;5.82;;;7.90;99.90;;;;;;5080507;28;20474;-76
2022/09/28 06:43:24;;;;;;;9.45;6.88;;;7.90;99.90;;;;;;5080073;28;20016;-75
2022/09/28 06:45:51;;;;;;;7.55;5.65;;;7.90;99.90;;;;;;5079409;28;20029;-75
2022/09/28 06:48:17;;;;;;;6.45;4.53;;;7.90;99.90;;;;;;5085922;28;20025;-76
2022/09/28 06:50:43;;;;;;;7.50;6.63;;;7.90;99.90;;;;;;5084677;28;20545;-75
2022/09/28 06:53:12;;;;;;;7.85;5.07;;;8.00;99.90;;;;;;5079093;28;20481;-76
2022/09/28 06:55:39;;;;;;;7.20;4.88;;;8.00;99.90;;;;;;5080165;28;20020;-74
2022/09/28 06:58:12;;;;;;;5.80;4.82;;;8.00;99.90;;;;;;5084474;28;20425;-75
2022/09/28 07:00:38;;;;;;;6.53;5.68;;;8.00;99.90;;;;;;5086050;28;20020;-75
2022/09/28 07:03:23;;;;;;;7.68;5.22;;;8.10;99.90;;;;;;5065745;28;20027;-75
2022/09/28 07:05:52;;;;;;;5.07;3.88;;;8.20;99.90;;;;;;5078871;28;20112;-75
2022/09/28 07:08:19;;;;;;;5.75;4.05;;;8.10;99.90;;;;;;5082614;28;20056;-75
2022/09/28 07:10:47;;;;;;;4.43;3.90;;;8.20;99.90;;;;;;5084245;28;20477;-75
2022/09/28 07:13:14;;;;;;;6.20;3.70;;;8.30;99.90;;;;;;5082164;28;20036;-76
2022/09/28 07:15:42;;;;;;;5.28;4.20;;;8.20;99.90;;;;;;5087780;28;20020;-75
2022/09/28 07:18:09;;;;;;;4.30;3.60;;;8.30;99.90;;;;;;5070712;28;20031;-75
2022/09/28 07:20:36;;;;;;;4.60;3.40;;;8.40;99.90;;;;;;5071138;28;20017;-75
2022/09/28 07:23:04;;;;;;;7.82;5.63;;;8.50;99.90;;;;;;5080931;28;20028;-75
2022/09/28 07:25:31;;;;;;;8.50;6.43;;;8.80;99.90;;;;;;5078613;28;20480;-75
2022/09/28 07:28:00;;;;;;;7.35;5.47;;;8.90;99.90;;;;;;5091985;28;20039;-75
2022/09/28 07:30:31;;;;;;;8.07;5.05;;;8.80;99.90;;;;;;5077697;28;20028;-75
2022/09/28 07:32:57;;;;;;;5.93;5.28;;;8.70;99.90;;;;;;5080034;28;20028;-74
2022/09/28 07:35:23;;;;;;;6.20;5.35;;;8.70;99.90;;;;;;5084246;28;20070;-74
2022/09/28 07:37:55;;;;;;;5.18;4.32;;;8.80;99.90;;;;;;5084789;28;20489;-74
2022/09/28 07:43:06;;;;;;;4.68;2.90;;;8.70;99.90;;;;;;5065629;28;20500;-74
2022/09/28 07:45:34;;;;;;;4.15;2.50;;;8.70;99.90;;;;;;5080394;28;20400;-74
2022/09/28 07:48:00;;;;;;;2.83;2.42;;;8.80;99.90;;;;;;5074502;28;20034;-75
2022/09/28 07:50:26;;;;;;;2.42;2.20;;;8.80;99.90;;;;;;5082143;28;20032;-74
2022/09/28 07:52:51;;;;;;;3.33;1.90;;;8.80;99.90;;;;;;5078116;28;20028;-75
2022/09/28 07:55:17;;;;;;;3.60;2.00;;;9.00;99.90;;;;;;5081153;28;20473;-74
2022/09/28 07:57:45;;;;;;;2.65;2.00;;;9.00;99.90;;;;;;5086215;28;20025;-73
2022/09/28 08:00:12;;;;;;;2.97;1.63;;;8.90;99.90;;;;;;5088807;28;20099;-74
2022/09/28 08:02:37;;;;;;;1.92;1.58;;;8.90;99.90;;;;;;5094603;28;20028;-74
2022/09/28 08:05:03;;;;;;;2.28;1.42;;;8.90;99.90;;;;;;5087648;28;20035;-74
2022/09/28 08:07:29;;;;;;;3.08;1.48;;;8.80;99.90;;;;;;5083442;28;20024;-75
2022/09/28 08:09:54;;;;;;;1.88;1.30;;;8.80;99.90;;;;;;5098130;28;20036;-75
2022/09/28 08:12:21;;;;;;;1.67;1.45;;;8.80;99.90;;;;;;5084513;28;20024;-74
2022/09/28 08:14:47;;;;;;;2.20;1.90;;;8.80;99.90;;;;;;5087780;28;20020;-74
2022/09/28 08:17:12;;;;;;;3.25;1.40;;;8.90;99.90;;;;;;5091754;28;20063;-73
2022/09/28 08:22:22;;;;;;;1.92;1.45;;;9.00;99.90;;;;;;5091480;28;20032;-74
2022/09/28 08:24:48;;;;;;;1.42;1.33;;;9.00;99.90;;;;;;5091227;28;20032;-75
2022/09/28 08:27:15;;;;;;;2.00;1.10;;;9.10;99.90;;;;;;5085013;28;20020;-74
2022/09/28 08:29:41;;;;;;;2.95;1.20;;;9.20;99.90;;;;;;5084693;28;20055;-76
2022/09/28 08:32:08;;;;;;;1.08;0.90;;;9.20;99.90;;;;;;5089936;28;20474;-75
2022/09/28 08:34:38;;;;;;;1.10;0.70;;;9.10;99.90;;;;;;5091446;28;20036;-75
2022/09/28 08:37:06;;;;;;;1.25;0.85;;;9.00;99.90;;;;;;5071256;28;20449;-74
2022/09/28 08:39:33;;;;;;;0.90;0.90;;;9.00;99.90;;;;;;5084496;28;20016;-74
2022/09/28 08:42:20;;;;;;;1.40;0.88;;;9.10;99.90;;;;;;5098152;28;20062;-73
2022/09/28 08:44:56;;;;;;;1.17;1.00;;;9.20;99.90;;;;;;5084338;28;20024;-74
2022/09/28 08:50:28;;;;;;;1.23;1.13;;;9.30;99.90;;;;;;5067058;28;20039;-74
2022/09/28 08:53:01;;;;;;;1.58;0.80;;;9.30;99.90;;;;;;5077399;28;20477;-74
2022/09/28 08:55:33;;;;;;;2.88;1.00;;;9.30;99.90;;;;;;5089320;28;20032;-74
2022/09/28 08:58:05;;;;;;;1.75;1.60;;;9.30;99.90;;;;;;5083235;28;20074;-74
2022/09/28 09:00:50;;;;;;;2.88;1.40;;;9.30;99.90;;;;;;5084926;28;20047;-75
2022/09/28 09:03:27;;;;;;;2.35;1.70;;;9.40;99.90;;;;;;5075106;28;20028;-74
2022/09/28 09:06:21;;;;;;;1.95;1.80;;;9.20;99.90;;;;;;5082744;28;20042;-76
2022/09/28 09:09:01;;;;;;;2.40;1.70;;;9.20;99.90;;;;;;5084308;28;20408;-74
2022/09/28 09:11:48;;;;;;;1.75;1.63;;;9.40;99.90;;;;;;5084144;28;20035;-75
2022/09/28 09:14:32;;;;;;;2.20;2.00;;;9.60;99.90;;;;;;5088121;28;20035;-75
2022/09/28 09:17:03;;;;;;;2.10;1.85;;;9.50;99.90;;;;;;5074953;28;20016;-74
2022/09/28 09:19:54;;;;;;;2.20;2.00;;;9.60;99.90;;;;;;5085097;28;20016;-75
2022/09/28 09:22:26;;;;;;;2.35;2.08;;;9.70;99.90;;;;;;5086500;28;20040;-75
2022/09/28 09:25:02;;;;;;;5.20;2.17;;;10.10;99.90;;;;;;5085580;28;20434;-75
2022/09/28 09:27:56;;;;;;;3.45;2.40;;;10.10;99.90;;;;;;5066910;28;20027;-75
2022/09/28 09:30:23;;;;;;;2.88;2.10;;;9.90;99.90;;;;;;5079212;28;20024;-75
2022/09/28 09:33:23;;;;;;;2.63;2.10;;;9.80;99.90;;;;;;5083302;28;20028;-75
2022/09/28 09:36:02;;;;;;;4.80;2.80;;;9.90;99.90;;;;;;5054040;28;20096;-74
2022/09/28 09:38:48;;;;;;;3.10;2.42;;;10.00;99.90;;;;;;5085730;28;20028;-75
2022/09/28 09:41:24;;;;;;;3.83;3.43;;;10.30;99.90;;;;;;5087419;28;20051;-74
2022/09/28 09:44:46;;;;;;;3.95;2.55;;;10.10;99.90;;;;;;5082850;28;20036;-74
2022/09/28 09:47:18;;;;;;;3.17;2.88;;;9.80;99.90;;;;;;5049174;28;20039;-75
2022/09/28 09:49:59;;;;;;;2.97;2.58;;;9.80;99.90;;;;;;5078955;28;20036;-75
2022/09/28 09:52:50;;;;;;;3.33;2.20;;;9.80;99.90;;;;;;5081254;28;20025;-76
2022/09/28 09:55:25;;;;;;;2.35;1.80;;;10.30;99.90;;;;;;5083202;28;20477;-75
2022/09/28 09:57:53;;;;;;;2.30;2.10;;;10.20;99.90;;;;;;5080175;28;20031;-74
2022/09/28 10:00:19;;;;;;;3.65;2.10;;;10.40;99.90;;;;;;5081594;28;20028;-75
2022/09/28 10:02:46;;;;;;;2.33;2.00;;;10.30;99.90;;;;;;5070710;28;20028;-74
2022/09/28 10:05:12;;;;;;;2.97;2.50;;;10.10;99.90;;;;;;5072097;28;20031;-74
2022/09/28 10:07:59;;;;;;;3.05;2.25;;;10.00;99.90;;;;;;5082379;28;20029;-75
2022/09/28 10:10:24;;;;;;;2.60;2.08;;;9.90;99.90;;;;;;5077272;28;20063;-74
2022/09/28 10:12:51;;;;;;;3.85;2.78;;;9.90;99.90;;;;;;5075276;28;20044;-75
2022/09/28 10:15:26;;;;;;;5.05;3.00;;;9.90;99.90;;;;;;5080771;28;20478;-75
2022/09/28 10:17:57;;;;;;;2.40;2.20;;;10.00;99.90;;;;;;5070279;28;20043;-76
2022/09/28 10:20:24;;;;;;;3.33;2.50;;;9.90;99.90;;;;;;5069998;28;20024;-75
2022/09/28 10:22:50;;;;;;;5.07;2.38;;;10.10;99.90;;;;;;5073119;28;20382;-75
2022/09/28 10:25:17;;;;;;;3.05;2.20;;;10.10;99.90;;;;;;5075609;28;20021;-75
2022/09/28 10:27:45;;;;;;;3.85;2.38;;;10.20;99.90;;;;;;5073210;28;20042;-75
2022/09/28 10:30:19;;;;;;;2.10;1.90;;;10.40;99.90;;;;;;5075652;28;20030;-75
2022/09/28 10:32:46;;;;;;;2.25;1.98;;;10.60;99.90;;;;;;5073140;28;20040;-75
2022/09/28 10:35:13;;;;;;;3.08;2.20;;;10.50;99.90;;;;;;5072791;28;20021;-74
2022/09/28 10:38:06;;;;;;;3.05;2.75;;;10.50;99.90;;;;;;5072546;28;20025;-75
2022/09/28 10:40:45;;;;;;;2.60;2.25;;;10.70;99.90;;;;;;5061959;28;20082;-74
2022/09/28 10:43:32;;;;;;;3.20;2.55;;;11.10;99.90;;;;;;5086191;28;20482;-75
2022/09/28 10:46:00;;;;;;;;;;;11.00;99.90;;;;;;5087246;28;20115;-78
2022/09/28 10:48:27;;;;;;;2.67;2.25;;;10.90;99.90;;;;;;5085874;28;19912;-75
2022/09/28 10:51:13;;;;;;;3.97;2.22;;;10.90;99.90;;;;;;5072403;28;20021;-75
2022/09/28 10:53:39;;;;;;;3.28;2.58;;;10.50;99.90;;;;;;5083083;28;20044;-75
2022/09/28 10:56:09;;;;;;;2.35;2.15;;;10.50;99.90;;;;;;5085947;28;20028;-76
2022/09/28 10:58:40;;;;;;;3.90;2.42;;;10.30;99.90;;;;;;5074640;28;20100;-75
2022/09/28 11:01:22;;;;;;;3.08;2.47;;;10.40;99.90;;;;;;5085836;28;20051;-75
2022/09/28 11:04:00;;;;;;;3.05;2.35;;;10.60;99.90;;;;;;5085537;28;20020;-75
2022/09/28 11:06:36;;;;;;;3.38;2.42;;;10.80;99.90;;;;;;5082987;28;20111;-76
2022/09/28 11:09:35;;;;;;;3.50;2.53;;;11.10;99.90;;;;;;5085512;28;20036;-75
2022/09/28 11:12:04;;;;;;;1.67;1.40;;;11.10;99.90;;;;;;5019936;28;20040;-75
2022/09/28 11:14:36;;;;;;;3.65;1.48;;;10.80;99.90;;;;;;5084181;28;20036;-75
2022/09/28 11:17:26;;;;;;;1.65;1.55;;;10.60;99.90;;;;;;5071866;28;20016;-75
2022/09/28 11:19:53;;;;;;;3.08;2.78;;;10.60;99.90;;;;;;5083121;28;20031;-74
2022/09/28 11:22:23;;;;;;;2.42;1.60;;;10.70;99.90;;;;;;5077448;28;20168;-75
2022/09/28 11:24:49;;;;;;;2.10;1.90;;;10.90;99.90;;;;;;5077234;28;20033;-75
2022/09/28 11:27:32;;;;;;;2.95;1.90;;;10.90;99.90;;;;;;5078422;28;20032;-75
2022/09/28 11:29:58;;;;;;;1.92;1.70;;;11.60;99.90;;;;;;5078583;28;20395;-75
2022/09/28 11:32:29;;;;;;;4.00;2.08;;;11.70;99.90;;;;;;5081373;28;20024;-75
2022/09/28 11:34:58;;;;;;;1.77;1.67;;;11.90;99.90;;;;;;5084190;28;20024;-75
2022/09/28 11:37:47;;;;;;;2.08;1.67;;;12.20;99.90;;;;;;5071623;28;20016;-75
2022/09/28 11:40:26;;;;;;;2.97;1.90;;;11.80;99.90;;;;;;5080696;28;20017;-75
2022/09/28 11:43:01;;;;;;;2.05;1.63;;;11.60;99.90;;;;;;5062387;28;20025;-76
2022/09/28 11:45:33;;;;;;;1.77;1.60;;;11.40;99.90;;;;;;5083409;28;20490;-75
2022/09/28 11:48:06;;;;;;;3.67;1.73;;;11.20;99.90;;;;;;5078067;28;20035;-75
2022/09/28 11:50:41;;;;;;;1.70;1.30;;;11.30;99.90;;;;;;5081034;28;20031;-75
2022/09/28 11:53:17;;;;;;;1.30;1.20;;;11.20;99.90;;;;;;5085215;28;20028;-75
2022/09/28 11:56:04;;;;;;;4.43;1.25;;;11.10;99.90;;;;;;5084136;28;20025;-75
2022/09/28 11:58:36;;;;;;;2.92;1.60;;;11.10;99.90;;;;;;5070904;28;20031;-75
2022/09/28 12:01:07;;;;;;;2.85;1.23;;;11.20;99.90;;;;;;5076942;28;20028;-75
2022/09/28 12:03:41;;;;;;;2.13;1.17;;;11.10;99.90;;;;;;5083722;28;20028;-75
2022/09/28 12:06:34;;;;;;;3.67;1.48;;;11.00;99.90;;;;;;5078333;28;20093;-75
2022/09/28 12:09:09;;;;;;;1.42;1.33;;;10.90;99.90;;;;;;5078012;28;20502;-75
2022/09/28 12:11:42;;;;;;;2.38;1.85;;;11.00;99.90;;;;;;5081381;28;20364;-75
2022/09/28 12:14:23;;;;;;;2.20;1.50;;;11.50;99.90;;;;;;5085432;28;20478;-75
2022/09/28 12:16:56;;;;;;;1.65;1.55;;;11.80;99.90;;;;;;5085234;28;20078;-76
2022/09/28 12:19:44;;;;;;;1.98;1.30;;;12.80;99.90;;;;;;5082741;28;20032;-75
2022/09/28 12:22:31;;;;;;;4.78;1.40;;;13.40;99.90;;;;;;5085202;28;20021;-76
2022/09/28 12:24:59;;;;;;;2.10;1.17;;;13.50;99.90;;;;;;5072150;28;20567;-76
2022/09/28 12:27:30;;;;;;;1.10;1.00;;;14.10;99.90;;;;;;5071146;28;20478;-75
2022/09/28 12:30:09;;;;;;;1.15;0.98;;;13.40;99.90;;;;;;5072346;28;20021;-75
2022/09/28 12:32:46;;;;;;;0.90;0.88;;;13.10;99.90;;;;;;5081983;28;20036;-75
2022/09/28 12:35:30;;;;;;;1.40;0.98;;;13.00;99.90;;;;;;5087711;28;20055;-75
2022/09/28 12:38:17;;;;;;;1.20;1.02;;;12.90;99.90;;;;;;5075863;28;20386;-75
2022/09/28 12:41:01;;;;;;;2.75;1.17;;;13.90;99.90;;;;;;5080141;28;20637;-75
2022/09/28 12:43:43;;;;;;;1.73;0.85;;;14.30;99.90;;;;;;5085336;28;20089;-75
2022/09/28 12:46:21;;;;;;;2.00;0.80;;;14.10;99.90;;;;;;5073724;28;20035;-75
2022/09/28 12:49:01;;;;;;;1.38;0.93;;;14.10;99.90;;;;;;5074760;28;20074;-75
2022/09/28 12:51:27;;;;;;;3.03;1.20;;;13.70;99.90;;;;;;5088551;28;20025;-75
2022/09/28 12:54:20;;;;;;;1.15;1.05;;;14.90;99.90;;;;;;5084964;28;20028;-75
2022/09/28 12:57:18;;;;;;;2.80;0.82;;;14.30;99.90;;;;;;5062198;28;20385;-75
2022/09/28 13:00:02;;;;;;;2.05;1.10;;;13.50;99.90;;;;;;5080119;28;20119;-75
2022/09/28 13:02:28;;;;;;;2.22;1.05;;;14.20;99.90;;;;;;5080376;28;20020;-75
2022/09/28 13:05:15;;;;;;;1.80;0.90;;;15.30;99.90;;;;;;5084572;28;20036;-75
2022/09/28 13:08:07;;;;;;;2.80;1.20;;;15.90;99.90;;;;;;5074005;28;20025;-75
2022/09/28 13:10:44;;;;;;;1.85;1.13;;;15.20;99.90;;;;;;5074131;28;20064;-75
2022/09/28 13:13:25;;;;;;;1.35;1.10;;;15.20;99.90;;;;;;5074149;28;20028;-75
2022/09/28 13:15:56;;;;;;;2.38;1.02;;;15.50;99.90;;;;;;5073125;28;20020;-75
2022/09/28 13:18:50;;;;;;;3.08;0.95;;;13.30;99.90;;;;;;5078364;28;20287;-75
2022/09/28 13:21:35;;;;;;;1.40;0.98;;;12.10;99.90;;;;;;5055539;28;20029;-75
2022/09/28 13:24:04;;;;;;;1.52;1.20;;;12.40;99.90;;;;;;5073375;28;20028;-75
2022/09/28 13:26:49;;;;;;;2.03;1.10;;;14.00;99.90;;;;;;5071914;28;20021;-76
2022/09/28 13:29:18;;;;;;;0.93;0.90;;;14.70;99.90;;;;;;5072681;28;20036;-76